Time;durP1;ratioP1;P1;durP2;ratioP2;P2;SDS_P1;SDS_P2;PMS_P1;PMS_P2;Temp;Humidity;BMP_temperature;BMP_pressure;BME280_temperature;BME280_humidity;BME280_pressure;Samples;Min_cycle;Max_cycle;Signal;HPM_P1;HPM_P2
2024/04/14 00:00:04;;;;;;;17.50;11.18;;;;;;;-145.63;100.00;61273.97;4985303;28;20045;-63
2024/04/14 00:02:30;;;;;;;17.17;10.98;;;;;;;-145.63;100.00;61273.97;4979138;28;20030;-63
2024/04/14 00:04:56;;;;;;;22.27;11.35;;;;;;;-145.63;100.00;61273.97;4980911;28;20053;-64
2024/04/14 00:07:22;;;;;;;17.20;11.35;;;;;;;-145.63;100.00;61273.97;4981004;28;20220;-63
2024/04/14 00:09:47;;;;;;;17.63;10.52;;;;;;;-145.63;100.00;61273.97;4982534;28;20038;-62
2024/04/14 00:12:13;;;;;;;21.13;11.57;;;;;;;-145.63;100.00;61273.97;4982451;28;20041;-64
2024/04/14 00:14:39;;;;;;;20.55;11.45;;;;;;;-145.63;100.00;61273.97;4985341;28;20065;-63
2024/04/14 00:17:04;;;;;;;19.90;11.27;;;;;;;-145.63;100.00;61273.97;4978096;28;20031;-62
2024/04/14 00:19:31;;;;;;;21.65;11.05;;;;;;;-145.63;100.00;61273.97;4982253;28;20624;-62
2024/04/14 00:21:56;;;;;;;20.58;12.02;;;;;;;-145.63;100.00;61273.97;4980075;28;20030;-64
2024/04/14 00:24:22;;;;;;;20.80;12.00;;;;;;;-145.63;100.00;61273.97;4984431;28;20022;-63
2024/04/14 00:26:51;;;;;;;18.83;12.07;;;;;;;-145.63;100.00;61273.97;4981544;28;20027;-63
2024/04/14 00:29:17;;;;;;;21.38;12.07;;;;;;;-145.63;100.00;61273.97;4981915;28;20027;-62
2024/04/14 00:31:42;;;;;;;21.90;12.25;;;;;;;-145.63;100.00;61273.97;4979481;28;20340;-63
2024/04/14 00:34:10;;;;;;;19.52;12.40;;;;;;;-145.63;100.00;61273.97;4982135;28;20038;-64
2024/04/14 00:36:36;;;;;;;19.42;11.40;;;;;;;-145.63;100.00;61273.97;4978173;28;20099;-64
2024/04/14 00:39:03;;;;;;;23.08;11.43;;;;;;;-145.63;100.00;61273.97;4978896;28;20023;-63
2024/04/14 00:41:28;;;;;;;24.65;12.25;;;;;;;-145.63;100.00;61273.97;4979627;28;20059;-63
2024/04/14 00:43:54;;;;;;;29.48;13.10;;;;;;;-145.63;100.00;61273.97;4985411;28;20058;-63
2024/04/14 00:46:19;;;;;;;23.42;12.63;;;;;;;-145.63;100.00;61273.97;4977802;28;20088;-63
2024/04/14 00:48:45;;;;;;;18.48;11.90;;;;;;;-145.63;100.00;61273.97;4984351;28;20040;-63
2024/04/14 00:51:11;;;;;;;23.15;12.40;;;;;;;-145.63;100.00;61273.97;4979583;28;20035;-65
2024/04/14 00:53:43;;;;;;;17.92;12.13;;;;;;;-145.63;100.00;61273.97;4977863;28;20459;-62
2024/04/14 00:56:27;;;;;;;25.13;13.20;;;;;;;-145.63;100.00;61273.97;4982135;28;20109;-62
2024/04/14 00:59:00;;;;;;;30.08;13.35;;;;;;;-145.63;100.00;61273.97;4979973;28;20055;-62
2024/04/14 01:01:26;;;;;;;23.67;14.27;;;;;;;-145.63;100.00;61273.97;4982880;28;20034;-63
2024/04/14 01:03:51;;;;;;;23.17;13.00;;;;;;;-145.63;100.00;61273.97;4982844;28;20080;-64
2024/04/14 01:06:17;;;;;;;21.90;13.63;;;;;;;-145.63;100.00;61273.97;4976423;28;20061;-64
2024/04/14 01:08:44;;;;;;;25.27;15.05;;;;;;;-145.63;100.00;61273.97;4980774;28;20365;-63
2024/04/14 01:11:10;;;;;;;26.38;14.55;;;;;;;-145.63;100.00;61273.97;4981165;28;20038;-63
2024/04/14 01:13:36;;;;;;;27.10;14.65;;;;;;;-145.63;100.00;61273.97;4980602;28;20023;-64
2024/04/14 01:16:02;;;;;;;26.52;14.38;;;;;;;-145.63;100.00;61273.97;4980133;28;20057;-62
2024/04/14 01:18:28;;;;;;;23.98;14.10;;;;;;;-145.63;100.00;61273.97;4977476;28;20030;-62
2024/04/14 01:20:53;;;;;;;24.45;13.95;;;;;;;-145.63;100.00;61273.97;4978369;28;20030;-62
2024/04/14 01:23:20;;;;;;;23.13;14.02;;;;;;;-145.63;100.00;61273.97;4978453;28;20049;-65
2024/04/14 01:25:46;;;;;;;30.77;14.80;;;;;;;-145.63;100.00;61273.97;4985555;28;20109;-63
2024/04/14 01:28:17;;;;;;;26.70;14.52;;;;;;;-145.63;100.00;61273.97;4978151;28;20146;-63
2024/04/14 01:31:01;;;;;;;26.63;15.05;;;;;;;-145.63;100.00;61273.97;4978795;28;20034;-64
2024/04/14 01:33:30;;;;;;;26.00;14.45;;;;;;;-145.63;100.00;61273.97;4981014;28;20034;-64
2024/04/14 01:35:56;;;;;;;24.63;14.02;;;;;;;-145.63;100.00;61273.97;4978910;28;20042;-64
2024/04/14 01:38:21;;;;;;;24.15;14.30;;;;;;;-145.63;100.00;61273.97;4978661;28;20031;-63
2024/04/14 01:40:47;;;;;;;20.75;13.88;;;;;;;-145.63;100.00;61273.97;4978332;28;20117;-62
2024/04/14 01:43:12;;;;;;;23.60;14.20;;;;;;;-145.63;100.00;61273.97;4981721;28;20045;-63
2024/04/14 01:45:41;;;;;;;21.90;13.48;;;;;;;-145.63;100.00;61273.97;4982477;28;20031;-63
2024/04/14 01:48:34;;;;;;;22.75;13.25;;;;;;;-145.63;100.00;61273.97;4984741;28;20069;-64
2024/04/14 01:51:09;;;;;;;23.92;13.65;;;;;;;-145.63;100.00;61273.97;4981259;28;20418;-63
2024/04/14 01:53:53;;;;;;;19.98;13.77;;;;;;;-145.63;100.00;61273.97;4984291;28;20034;-63
2024/04/14 01:56:27;;;;;;;30.73;14.05;;;;;;;-145.63;100.00;61273.97;4982561;28;20113;-63
2024/04/14 01:59:23;;;;;;;26.55;14.50;;;;;;;-145.63;100.00;61273.97;4978799;28;20042;-63
2024/04/14 02:01:49;;;;;;;24.67;14.60;;;;;;;-145.63;100.00;61273.97;4979721;28;20082;-62
2024/04/14 02:04:14;;;;;;;23.60;14.07;;;;;;;-145.63;100.00;61273.97;4977530;28;20070;-62
2024/04/14 02:06:43;;;;;;;25.33;14.90;;;;;;;-145.63;100.00;61273.97;4977343;28;20030;-64
2024/04/14 02:09:08;;;;;;;25.10;14.52;;;;;;;-145.63;100.00;61273.97;4976389;28;20030;-63
2024/04/14 02:11:40;;;;;;;22.70;14.13;;;;;;;-145.63;100.00;61273.97;4980089;28;20026;-63
2024/04/14 02:14:11;;;;;;;22.55;13.82;;;;;;;-145.63;100.00;61273.97;4973023;28;20047;-63
2024/04/14 02:16:37;;;;;;;23.95;14.20;;;;;;;-145.63;100.00;61273.97;4985209;28;20054;-64
2024/04/14 02:19:15;;;;;;;23.33;14.95;;;;;;;-145.63;100.00;61273.97;4978889;28;20057;-63
2024/04/14 02:21:49;;;;;;;23.70;14.05;;;;;;;-145.63;100.00;61273.97;4979195;28;20432;-64
2024/04/14 02:24:32;;;;;;;27.45;13.77;;;;;;;-145.63;100.00;61273.97;4982227;28;20031;-63
2024/04/14 02:27:00;;;;;;;30.10;15.35;;;;;;;-145.63;100.00;61273.97;4978790;28;20126;-64
2024/04/14 02:29:26;;;;;;;25.17;14.48;;;;;;;-145.63;100.00;61273.97;4980867;28;20633;-63
2024/04/14 02:31:52;;;;;;;27.15;16.10;;;;;;;-145.63;100.00;61273.97;4977130;28;20031;-64
2024/04/14 02:34:18;;;;;;;21.63;14.43;;;;;;;-145.63;100.00;61273.97;4987484;28;20113;-64
2024/04/14 02:36:43;;;;;;;19.98;13.70;;;;;;;-145.63;100.00;61273.97;4983151;28;20131;-63
2024/04/14 02:39:09;;;;;;;28.08;15.30;;;;;;;-145.63;100.00;61273.97;4979752;28;20031;-62
2024/04/14 02:41:37;;;;;;;23.02;14.48;;;;;;;-145.63;100.00;61273.97;4983111;28;20023;-64
2024/04/14 02:44:04;;;;;;;27.13;16.20;;;;;;;-145.63;100.00;61273.97;4984696;28;20018;-64
2024/04/14 02:46:30;;;;;;;28.38;14.48;;;;;;;-145.63;100.00;61273.97;4984187;28;20026;-64
2024/04/14 02:48:56;;;;;;;24.90;14.43;;;;;;;-145.63;100.00;61273.97;4984485;28;20034;-64
2024/04/14 02:51:21;;;;;;;24.85;14.60;;;;;;;-145.63;100.00;61273.97;4981580;28;20128;-65
2024/04/14 02:53:47;;;;;;;23.83;14.43;;;;;;;-145.63;100.00;61273.97;4985619;28;20054;-64
2024/04/14 02:56:13;;;;;;;26.30;15.20;;;;;;;-145.63;100.00;61273.97;4981473;28;20026;-64
2024/04/14 02:58:38;;;;;;;24.15;15.18;;;;;;;-145.63;100.00;61273.97;4982686;28;20408;-64
2024/04/14 03:01:04;;;;;;;28.40;15.18;;;;;;;-145.63;100.00;61273.97;4982224;28;20165;-63
2024/04/14 03:03:30;;;;;;;21.30;14.02;;;;;;;-145.63;100.00;61273.97;4981229;28;20098;-62
2024/04/14 03:06:03;;;;;;;22.50;13.80;;;;;;;-145.63;100.00;61273.97;4985822;28;20042;-63
2024/04/14 03:08:29;;;;;;;28.40;14.15;;;;;;;-145.63;100.00;61273.97;4978451;28;20471;-63
2024/04/14 03:10:56;;;;;;;26.35;15.00;;;;;;;-145.63;100.00;61273.97;4985574;28;20030;-64
2024/04/14 03:13:22;;;;;;;26.85;16.08;;;;;;;-145.63;100.00;61273.97;4978090;28;20072;-64
2024/04/14 03:15:48;;;;;;;26.60;14.55;;;;;;;-145.63;100.00;61273.97;4988487;28;20054;-62
2024/04/14 03:18:13;;;;;;;30.42;14.52;;;;;;;-145.63;100.00;61273.97;4985494;28;20030;-62
2024/04/14 03:20:39;;;;;;;24.05;14.55;;;;;;;-145.63;100.00;61273.97;4980737;28;20460;-62
2024/04/14 03:23:05;;;;;;;26.40;14.15;;;;;;;-145.63;100.00;61273.97;4983857;28;20114;-63
2024/04/14 03:25:30;;;;;;;27.88;13.85;;;;;;;-145.63;100.00;61273.97;4982658;28;20396;-62
2024/04/14 03:27:56;;;;;;;31.67;15.13;;;;;;;-145.63;100.00;61273.97;4983759;28;20038;-63
2024/04/14 03:30:21;;;;;;;20.45;14.15;;;;;;;-145.63;100.00;61273.97;4981532;28;20357;-63
2024/04/14 03:32:47;;;;;;;22.55;13.90;;;;;;;-145.63;100.00;61273.97;4985187;28;20034;-65
2024/04/14 03:35:13;;;;;;;24.95;13.68;;;;;;;-145.63;100.00;61273.97;4982715;28;20034;-63
2024/04/14 03:37:42;;;;;;;19.83;13.18;;;;;;;-145.63;100.00;61273.97;4978613;28;20456;-64
2024/04/14 03:40:08;;;;;;;23.40;12.68;;;;;;;-145.63;100.00;61273.97;4982472;28;20030;-62
2024/04/14 03:42:36;;;;;;;23.70;12.13;;;;;;;-145.63;100.00;61273.97;4981330;28;20074;-64
2024/04/14 03:45:07;;;;;;;21.98;13.38;;;;;;;-145.63;100.00;61273.97;4980966;28;20038;-64
2024/04/14 03:47:33;;;;;;;24.80;12.88;;;;;;;-145.63;100.00;61273.97;4984764;28;20031;-63
2024/04/14 03:49:59;;;;;;;22.52;13.73;;;;;;;-145.63;100.00;61273.97;4977869;28;20517;-64
2024/04/14 03:52:24;;;;;;;30.40;14.13;;;;;;;-145.63;100.00;61273.97;4984786;28;20081;-64
2024/04/14 03:54:50;;;;;;;21.95;13.45;;;;;;;-145.63;100.00;61273.97;4982024;28;20513;-63
2024/04/14 03:57:16;;;;;;;26.55;15.38;;;;;;;-145.63;100.00;61273.97;4977997;28;20047;-63
2024/04/14 03:59:44;;;;;;;28.52;15.18;;;;;;;-145.63;100.00;61273.97;4979923;28;20026;-63
2024/04/14 04:02:11;;;;;;;24.80;13.52;;;;;;;-145.63;100.00;61273.97;4986702;28;20043;-64
2024/04/14 04:04:37;;;;;;;21.13;13.43;;;;;;;-145.63;100.00;61273.97;4977419;28;20022;-62
2024/04/14 04:07:03;;;;;;;24.27;14.00;;;;;;;-145.63;100.00;61273.97;4984953;28;20045;-63
2024/04/14 04:09:44;;;;;;;24.23;13.20;;;;;;;-145.63;100.00;61273.97;4980634;28;20035;-64
2024/04/14 04:12:09;;;;;;;21.92;13.82;;;;;;;-145.63;100.00;61273.97;4978140;28;20507;-62
2024/04/14 04:14:35;;;;;;;26.83;13.93;;;;;;;-145.63;100.00;61273.97;4983978;28;20038;-64
2024/04/14 04:17:22;;;;;;;24.52;12.90;;;;;;;-145.63;100.00;61273.97;4977956;28;20042;-62
2024/04/14 04:19:47;;;;;;;19.63;12.45;;;;;;;-145.63;100.00;61273.97;4983494;28;20110;-63
2024/04/14 04:22:13;;;;;;;18.58;13.18;;;;;;;-145.63;100.00;61273.97;4981629;28;20146;-64
2024/04/14 04:24:39;;;;;;;22.67;14.68;;;;;;;-145.63;100.00;61273.97;4981900;28;20031;-65
2024/04/14 04:27:04;;;;;;;25.10;13.88;;;;;;;-145.63;100.00;61273.97;4983995;28;20042;-63
2024/04/14 04:29:31;;;;;;;21.55;14.40;;;;;;;-145.63;100.00;61273.97;4983162;28;20117;-65
2024/04/14 04:31:56;;;;;;;21.20;15.75;;;;;;;-145.63;100.00;61273.97;4973812;28;20058;-64
2024/04/14 04:34:22;;;;;;;21.00;16.95;;;;;;;-145.63;100.00;61273.97;4983852;28;20427;-64
2024/04/14 04:36:48;;;;;;;25.55;16.02;;;;;;;-145.63;100.00;61273.97;4977398;28;20039;-64
2024/04/14 04:39:15;;;;;;;27.10;15.93;;;;;;;-145.63;100.00;61273.97;4984631;28;20158;-62
2024/04/14 04:41:40;;;;;;;22.05;18.45;;;;;;;-145.63;100.00;61273.97;4981692;28;20118;-63
2024/04/14 04:44:06;;;;;;;21.27;17.95;;;;;;;-145.63;100.00;61273.97;4981144;28;20045;-64
2024/04/14 04:46:32;;;;;;;23.77;16.88;;;;;;;-145.63;100.00;61273.97;4984465;28;20026;-63
2024/04/14 04:49:19;;;;;;;22.60;16.83;;;;;;;-145.63;100.00;61273.97;4979971;28;20482;-64
2024/04/14 04:52:06;;;;;;;27.95;16.92;;;;;;;-145.63;100.00;61273.97;4982235;28;20037;-65
2024/04/14 04:54:35;;;;;;;20.73;16.08;;;;;;;-145.63;100.00;61273.97;4980016;28;20708;-63
2024/04/14 04:57:24;;;;;;;22.20;16.08;;;;;;;-145.63;100.00;61273.97;4976500;28;20034;-63
2024/04/14 05:00:09;;;;;;;25.45;18.65;;;;;;;-145.63;100.00;61273.97;4980612;28;20096;-63
2024/04/14 05:11:42;;;;;;;15.38;10.75;;;;;;;-145.63;100.00;61273.97;4973554;28;20018;-63
2024/04/14 05:14:07;;;;;;;12.25;9.05;;;;;;;-145.63;100.00;61273.97;4977640;28;20030;-64
2024/04/14 05:16:33;;;;;;;12.95;8.75;;;;;;;-145.63;100.00;61273.97;4982223;28;20085;-66
2024/04/14 05:18:59;;;;;;;11.13;7.05;;;;;;;-145.63;100.00;61273.97;4991580;28;20050;-63
2024/04/14 05:21:25;;;;;;;10.50;6.97;;;;;;;-145.63;100.00;61273.97;4984241;28;20034;-65
2024/04/14 05:23:51;;;;;;;32.67;8.85;;;;;;;-145.63;100.00;61273.97;4981010;28;20737;-63
2024/04/14 05:26:16;;;;;;;22.00;7.53;;;;;;;-145.63;100.00;61273.97;4983856;28;20452;-65
2024/04/14 05:28:42;;;;;;;12.77;6.28;;;;;;;-145.63;100.00;61273.97;4981770;28;20041;-65
2024/04/14 05:31:11;;;;;;;9.10;5.18;;;;;;;-145.63;100.00;61273.97;4983761;28;20026;-63
2024/04/14 05:36:35;;;;;;;7.18;4.38;;;;;;;-145.63;100.00;61273.97;4982855;28;20046;-63
2024/04/14 05:39:12;;;;;;;6.30;3.78;;;;;;;-145.63;100.00;61273.97;4976746;28;20035;-64
2024/04/14 05:42:08;;;;;;;4.43;3.90;;;;;;;-145.63;100.00;61273.97;4975888;28;20029;-64
2024/04/14 05:44:39;;;;;;;12.13;4.65;;;;;;;-145.63;100.00;61273.97;4981734;28;20026;-63
2024/04/14 05:47:35;;;;;;;5.38;3.72;;;;;;;-145.63;100.00;61273.97;4980931;28;20038;-62
2024/04/14 05:50:13;;;;;;;5.60;3.90;;;;;;;-145.63;100.00;61273.97;4977498;28;20066;-65
2024/04/14 05:52:53;;;;;;;9.10;3.95;;;;;;;-145.63;100.00;61273.97;4981641;28;20030;-63
2024/04/14 05:55:30;;;;;;;6.00;3.45;;;;;;;-145.63;100.00;61273.97;4978640;28;20038;-64
2024/04/14 05:58:23;;;;;;;5.70;3.10;;;;;;;-145.63;100.00;61273.97;4979714;28;20082;-64
2024/04/14 06:00:49;;;;;;;5.35;3.80;;;;;;;-145.63;100.00;61273.97;4983836;28;20037;-62
2024/04/14 06:03:14;;;;;;;6.70;3.95;;;;;;;-145.63;100.00;61273.97;4979355;28;20035;-63
2024/04/14 06:08:55;;;;;;;10.20;4.35;;;;;;;-145.63;100.00;61273.97;4977055;28;20076;-65
2024/04/14 06:11:30;;;;;;;9.20;4.63;;;;;;;-145.63;100.00;61273.97;4992109;28;20058;-64
2024/04/14 06:14:04;;;;;;;11.27;4.95;;;;;;;-145.63;100.00;61273.97;4995959;28;20089;-63
2024/04/14 06:16:35;;;;;;;9.20;5.10;;;;;;;-145.63;100.00;61273.97;4995219;28;20031;-64
2024/04/14 06:19:20;;;;;;;14.25;5.03;;;;;;;-145.63;100.00;61273.97;4994479;28;20030;-66
2024/04/14 06:22:17;;;;;;;7.53;5.15;;;;;;;-145.63;100.00;61273.97;4991896;28;20264;-65
2024/04/14 06:24:48;;;;;;;7.95;4.05;;;;;;;-145.63;100.00;61273.97;4987875;28;20031;-63
2024/04/14 06:27:23;;;;;;;11.65;4.22;;;;;;;-145.63;100.00;61273.97;4984229;28;20045;-64
2024/04/14 06:29:51;;;;;;;4.97;3.20;;;;;;;-145.63;100.00;61273.97;4995571;28;20030;-64
2024/04/14 06:32:26;;;;;;;5.00;2.78;;;;;;;-145.63;100.00;61273.97;4979722;28;20365;-63
2024/04/14 06:35:05;;;;;;;5.88;2.83;;;;;;;-145.63;100.00;61273.97;4982136;28;20037;-63
2024/04/14 06:37:30;;;;;;;5.78;2.42;;;;;;;-145.63;100.00;61273.97;4984203;28;20037;-64
2024/04/14 06:43:23;;;;;;;4.50;2.47;;;;;;;-145.63;100.00;61273.97;4985068;28;20067;-64
2024/04/14 06:46:13;;;;;;;4.03;2.63;;;;;;;-145.63;100.00;61273.97;4985358;28;20050;-64
2024/04/14 06:49:10;;;;;;;3.55;2.25;;;;;;;-145.63;100.00;61273.97;4981957;28;20030;-63
2024/04/14 06:51:54;;;;;;;2.60;1.77;;;;;;;-145.63;100.00;61273.97;4985960;28;20469;-63
2024/04/14 06:54:22;;;;;;;2.72;1.58;;;;;;;-145.63;100.00;61273.97;4975118;28;20414;-63
2024/04/14 06:56:48;;;;;;;2.25;1.60;;;;;;;-145.63;100.00;61273.97;4975777;28;20039;-63
2024/04/14 06:59:25;;;;;;;2.35;1.25;;;;;;;-145.63;100.00;61273.97;4993814;28;20054;-62
2024/04/14 07:02:10;;;;;;;5.18;2.10;;;;;;;-145.63;100.00;61273.97;4983581;28;20031;-64
2024/04/14 07:04:47;;;;;;;5.53;2.45;;;;;;;-145.63;100.00;61273.97;4995289;28;20547;-64
2024/04/14 07:07:21;;;;;;;5.40;2.30;;;;;;;-145.63;100.00;61273.97;4994959;28;20022;-63
2024/04/14 07:09:47;;;;;;;8.13;2.90;;;;;;;-145.63;100.00;61273.97;4987324;28;20460;-66
2024/04/14 07:12:18;;;;;;;6.93;2.63;;;;;;;-145.63;100.00;61273.97;4987225;28;20081;-63
2024/04/14 07:17:42;;;;;;;8.18;3.33;;;;;;;-145.63;100.00;61273.97;4974269;28;20139;-63
2024/04/14 07:20:10;;;;;;;6.75;2.63;;;;;;;-145.63;100.00;61273.97;4992855;28;20030;-64
2024/04/14 07:22:57;;;;;;;10.45;3.35;;;;;;;-145.63;100.00;61273.97;4987396;28;20545;-64
2024/04/14 07:25:26;;;;;;;8.80;3.70;;;;;;;-145.63;100.00;61273.97;4982710;28;20400;-62
2024/04/14 07:28:00;;;;;;;9.65;3.50;;;;;;;-145.63;100.00;61273.97;4984538;28;20039;-64
2024/04/14 07:30:26;;;;;;;11.88;3.47;;;;;;;-145.63;100.00;61273.97;4979612;28;20048;-64
2024/04/14 07:32:51;;;;;;;5.25;3.25;;;;;;;-145.63;100.00;61273.97;4982875;28;20436;-63
2024/04/14 07:35:42;;;;;;;3.08;1.92;;;;;;;-145.63;100.00;61273.97;4993235;28;20420;-63
2024/04/14 07:38:25;;;;;;;9.15;2.55;;;;;;;-145.63;100.00;61273.97;4991528;28;20034;-63
2024/04/14 07:41:22;;;;;;;2.95;1.50;;;;;;;-145.63;100.00;61273.97;5012110;28;20117;-63
2024/04/14 07:43:53;;;;;;;6.25;1.80;;;;;;;-145.63;100.00;61273.97;4985512;28;20484;-64
2024/04/14 07:46:27;;;;;;;2.23;1.50;;;;;;;-145.63;100.00;61273.97;4980995;28;20078;-63
2024/04/14 07:48:53;;;;;;;5.13;1.75;;;;;;;-145.63;100.00;61273.97;4994248;28;20030;-64
2024/04/14 07:51:19;;;;;;;2.60;1.60;;;;;;;-145.63;100.00;61273.97;4985351;28;20034;-63
2024/04/14 07:53:46;;;;;;;3.28;1.90;;;;;;;-145.63;100.00;61273.97;4989030;28;20093;-63
2024/04/14 07:56:12;;;;;;;5.43;1.83;;;;;;;-145.63;100.00;61273.97;4977732;28;20105;-64
2024/04/14 07:58:56;;;;;;;1.80;1.70;;;;;;;-145.63;100.00;61273.97;4987236;28;20125;-65
2024/04/14 08:01:31;;;;;;;3.78;2.17;;;;;;;-145.63;100.00;61273.97;4984964;28;20053;-65
2024/04/14 08:03:56;;;;;;;4.47;2.33;;;;;;;-145.63;100.00;61273.97;4992896;28;20097;-65
2024/04/14 08:06:32;;;;;;;4.25;2.15;;;;;;;-145.63;100.00;61273.97;4989068;28;20570;-64
2024/04/14 08:09:13;;;;;;;4.88;2.17;;;;;;;-145.63;100.00;61273.97;4993220;28;20261;-64
2024/04/14 08:11:41;;;;;;;5.28;2.17;;;;;;;-145.63;100.00;61273.97;4974411;28;20053;-64
2024/04/14 08:17:40;;;;;;;4.75;2.05;;;;;;;-145.63;100.00;61273.97;4975295;28;20081;-65
2024/04/14 08:20:17;;;;;;;7.53;2.70;;;;;;;-145.63;100.00;61273.97;4990587;28;20045;-65
2024/04/14 08:22:49;;;;;;;5.95;2.58;;;;;;;-145.63;100.00;61273.97;4986013;28;20045;-65
2024/04/14 08:28:16;;;;;;;7.32;2.72;;;;;;;-145.63;100.00;61273.97;4987795;28;20158;-66
2024/04/14 08:34:06;;;;;;;10.13;5.18;;;;;;;-145.63;100.00;61273.97;4981689;28;20057;-65
2024/04/14 08:37:05;;;;;;;4.45;2.53;;;;;;;-145.63;100.00;61273.97;4988974;28;20042;-68
2024/04/14 08:39:49;;;;;;;6.50;1.90;;;;;;;-145.63;100.00;61273.97;4976940;28;20034;-64
2024/04/14 08:42:23;;;;;;;2.92;1.80;;;;;;;-145.63;100.00;61273.97;4994021;28;20030;-65
2024/04/14 08:44:55;;;;;;;7.32;1.80;;;;;;;-145.63;100.00;61273.97;5012250;28;20041;-68
2024/04/14 08:47:28;;;;;;;4.03;1.92;;;;;;;-145.63;100.00;61273.97;4994060;28;20491;-68
2024/04/14 08:49:55;;;;;;;5.38;2.40;;;;;;;-145.63;100.00;61273.97;4992136;28;20030;-70
2024/04/14 08:52:36;;;;;;;3.03;2.40;;;;;;;-145.63;100.00;61273.97;4989906;28;20045;-69
2024/04/14 08:55:09;;;;;;;4.32;2.03;;;;;;;-145.63;100.00;61273.97;5000198;28;20121;-68
2024/04/14 08:57:53;;;;;;;6.95;2.42;;;;;;;-145.63;100.00;61273.97;4987696;28;20624;-66
2024/04/14 09:00:30;;;;;;;5.95;1.95;;;;;;;-145.63;100.00;61273.97;4983505;28;20050;-69
2024/04/14 09:02:56;;;;;;;6.32;2.40;;;;;;;-145.63;100.00;61273.97;5003476;28;20464;-70
2024/04/14 09:05:47;;;;;;;5.72;2.88;;;;;;;-145.63;100.00;61273.97;4993201;28;20084;-68
2024/04/14 09:08:25;;;;;;;6.13;2.55;;;;;;;-145.63;100.00;61273.97;4992491;28;20046;-68
2024/04/14 09:11:05;;;;;;;3.40;1.60;;;;;;;-145.63;100.00;61273.97;4976004;28;20475;-70
2024/04/14 09:13:37;;;;;;;3.70;1.80;;;;;;;-145.63;100.00;61273.97;4973180;28;20031;-69
2024/04/14 09:16:18;;;;;;;4.50;1.50;;;;;;;-145.63;100.00;61273.97;4982461;28;20124;-67
2024/04/14 09:18:59;;;;;;;3.80;2.28;;;;;;;-145.63;100.00;61273.97;4987720;28;20058;-69
2024/04/14 09:22:21;;;;;;;5.63;3.20;;;;;;;-145.63;100.00;61273.97;4979384;28;20055;-67
2024/04/14 09:25:20;;;;;;;6.68;2.30;;;;;;;-145.63;100.00;61273.97;4979516;28;20042;-67
2024/04/14 09:28:26;;;;;;;4.35;2.38;;;;;;;-145.63;100.00;61273.97;4987442;28;20069;-67
2024/04/14 09:31:25;;;;;;;5.97;1.65;;;;;;;-145.63;100.00;61273.97;4979403;28;20175;-68
2024/04/14 09:34:05;;;;;;;4.45;1.70;;;;;;;-145.63;100.00;61273.97;4986832;28;20023;-70
2024/04/14 09:37:05;;;;;;;6.72;2.20;;;;;;;-145.63;100.00;61273.97;4978119;28;20057;-68
2024/04/14 09:39:32;;;;;;;3.77;1.70;;;;;;;-145.63;100.00;61273.97;4989147;28;20035;-68
2024/04/14 09:42:17;;;;;;;3.25;1.85;;;;;;;-145.63;100.00;61273.97;4972469;28;20027;-70
2024/04/14 09:45:03;;;;;;;5.22;1.90;;;;;;;-145.63;100.00;61273.97;4972585;28;20051;-71
2024/04/14 09:47:43;;;;;;;4.60;2.15;;;;;;;-145.63;100.00;61273.97;4991399;28;20038;-70
2024/04/14 09:50:25;;;;;;;6.25;4.63;;;;;;;-145.63;100.00;61273.97;4991859;28;20034;-69
2024/04/14 09:52:56;;;;;;;3.80;2.25;;;;;;;-145.63;100.00;61273.97;4977455;28;20464;-70
2024/04/14 09:55:30;;;;;;;2.60;2.20;;;;;;;-145.63;100.00;61273.97;4982087;28;20077;-70
2024/04/14 09:58:02;;;;;;;31.13;18.70;;;;;;;-145.63;100.00;61273.97;4984004;28;20047;-70
2024/04/14 10:00:47;;;;;;;2.80;1.80;;;;;;;-145.63;100.00;61273.97;4974542;28;20436;-69
2024/04/14 10:03:32;;;;;;;7.40;1.80;;;;;;;-145.63;100.00;61273.97;4991788;28;20034;-69
2024/04/14 10:06:02;;;;;;;2.47;1.90;;;;;;;-145.63;100.00;61273.97;4988205;28;20121;-71
2024/04/14 10:08:33;;;;;;;4.68;2.38;;;;;;;-145.63;100.00;61273.97;4991045;28;20476;-71
2024/04/14 10:11:35;;;;;;;2.97;1.92;;;;;;;-145.63;100.00;61273.97;4975372;28;20447;-69
2024/04/14 10:14:00;;;;;;;5.82;2.47;;;;;;;-145.63;100.00;61273.97;4985470;28;20113;-71
2024/04/14 10:17:20;;;;;;;2.92;1.50;;;;;;;-145.63;100.00;61273.97;4981800;28;20114;-71
2024/04/14 10:20:17;;;;;;;5.50;1.45;;;;;;;-145.63;100.00;61273.97;4906509;29;20036;-70
2024/04/14 10:31:36;;;;;;;10.00;6.72;;;;;;;-145.63;100.00;61273.97;4975872;28;20033;-71
2024/04/14 10:34:42;;;;;;;6.20;2.10;;;;;;;-145.63;100.00;61273.97;4971954;28;20030;-72
2024/04/14 10:37:10;;;;;;;4.85;2.75;;;;;;;-145.63;100.00;61273.97;4974002;28;20046;-72
2024/04/14 10:40:02;;;;;;;3.08;1.42;;;;;;;-145.63;100.00;61273.97;4971699;28;20106;-72
2024/04/14 10:42:42;;;;;;;4.63;1.90;;;;;;;-145.63;100.00;61273.97;4975033;28;20038;-70
2024/04/14 10:45:27;;;;;;;14.20;9.77;;;;;;;-145.63;100.00;61273.97;4990298;28;20045;-69
2024/04/14 10:48:36;;;;;;;3.75;3.10;;;;;;;-145.63;100.00;61273.97;4987012;28;20415;-68
2024/04/14 10:51:23;;;;;;;1.67;1.58;;;;;;;-145.63;100.00;61273.97;4971712;28;20061;-69
2024/04/14 10:53:52;;;;;;;4.43;1.98;;;;;;;-145.63;100.00;61273.97;4981144;28;20761;-70
2024/04/14 10:56:27;;;;;;;2.85;1.80;;;;;;;-145.63;100.00;61273.97;4993553;28;20419;-70
2024/04/14 10:58:58;;;;;;;6.00;1.90;;;;;;;-145.63;100.00;61273.97;5001620;28;20150;-70
2024/04/14 11:01:39;;;;;;;;;;;;;;;-145.63;100.00;61273.97;5005488;28;20085;-70
2024/04/14 11:07:32;;;;;;;4.15;1.70;;;;;;;-145.63;100.00;61273.97;4982671;28;20147;-71
2024/04/14 11:09:58;;;;;;;4.00;1.83;;;;;;;-145.63;100.00;61273.97;4982739;28;20033;-68
2024/04/14 11:12:25;;;;;;;2.65;1.70;;;;;;;-145.63;100.00;61273.97;4976304;28;20066;-68
2024/04/14 11:14:51;;;;;;;7.28;2.40;;;;;;;-145.63;100.00;61273.97;4975292;28;20393;-69
2024/04/14 11:17:16;;;;;;;4.63;2.50;;;;;;;-145.63;100.00;61273.97;4984295;28;20489;-69
2024/04/14 11:19:45;;;;;;;3.38;2.38;;;;;;;-145.63;100.00;61273.97;4975170;28;20039;-70
2024/04/14 11:25:38;;;;;;;5.47;2.10;;;;;;;-145.63;100.00;61273.97;4989008;28;20056;-68
2024/04/14 11:28:04;;;;;;;6.63;2.58;;;;;;;-145.63;100.00;61273.97;4987578;28;20027;-68
2024/04/14 11:30:30;;;;;;;3.50;2.35;;;;;;;-145.63;100.00;61273.97;4975348;28;20027;-68
2024/04/14 11:33:02;;;;;;;5.15;2.58;;;;;;;-145.63;100.00;61273.97;4974762;28;20031;-69
2024/04/14 11:39:01;;;;;;;7.43;2.90;;;;;;;-145.63;100.00;61273.97;4994976;28;20110;-68
2024/04/14 11:41:36;;;;;;;8.18;4.65;;;;;;;-145.63;100.00;61273.97;4993160;28;20121;-68
2024/04/14 11:44:20;;;;;;;5.00;3.05;;;;;;;-145.63;100.00;61273.97;4989182;28;20034;-68
2024/04/14 11:46:47;;;;;;;5.97;2.60;;;;;;;-145.63;100.00;61273.97;4987659;28;20038;-68
2024/04/14 11:51:57;;;;;;;5.22;3.00;;;;;;;-145.63;100.00;61273.97;5009768;28;20117;-68
2024/04/14 11:57:28;;;;;;;7.25;2.55;;;;;;;-145.63;100.00;61273.97;4976972;28;20125;-70
2024/04/14 12:00:06;;;;;;;5.65;2.40;;;;;;;-145.63;100.00;61273.97;4994515;28;20109;-68
2024/04/14 12:02:57;;;;;;;2.53;2.28;;;;;;;-145.63;100.00;61273.97;4974834;28;20054;-69
2024/04/14 12:05:43;;;;;;;2.28;1.92;;;;;;;-145.63;100.00;61273.97;4990449;28;20041;-69
2024/04/14 12:08:18;;;;;;;3.65;2.10;;;;;;;-145.63;100.00;61273.97;4978928;28;20385;-70
2024/04/14 12:14:07;;;;;;;2.50;1.80;;;;;;;-145.63;100.00;61273.97;4981546;28;20098;-70
2024/04/14 12:16:39;;;;;;;3.08;1.80;;;;;;;-145.63;100.00;61273.97;4984383;28;20026;-69
2024/04/14 12:19:13;;;;;;;4.93;2.15;;;;;;;-145.63;100.00;61273.97;4987962;28;20054;-69
2024/04/14 12:22:13;;;;;;;2.10;1.70;;;;;;;-145.63;100.00;61273.97;4979673;28;20049;-68
2024/04/14 12:24:57;;;;;;;5.00;2.30;;;;;;;-145.63;100.00;61273.97;4990110;28;20023;-67
2024/04/14 12:27:32;;;;;;;3.05;2.40;;;;;;;-145.63;100.00;61273.97;4974343;28;20515;-68